createdAt,value
2019-01-11T00:01:54.940Z,8.40
2019-01-11T00:04:24.366Z,7.00
2019-01-11T00:06:53.716Z,7.00
2019-01-11T00:09:23.166Z,6.67
2019-01-11T00:11:52.516Z,7.03
2019-01-11T00:14:41.015Z,6.93
2019-01-11T00:17:10.352Z,4.97
2019-01-11T00:19:39.677Z,5.77
2019-01-11T00:22:09.107Z,8.90
2019-01-11T00:24:38.521Z,7.83
2019-01-11T00:27:07.927Z,7.17
2019-01-11T00:29:37.352Z,6.03
2019-01-11T00:32:06.720Z,5.20
2019-01-11T00:34:36.057Z,6.70
2019-01-11T00:37:05.517Z,5.83
2019-01-11T00:39:34.949Z,5.17
2019-01-11T00:42:04.721Z,5.37
2019-01-11T00:44:34.127Z,5.07
2019-01-11T00:47:03.571Z,4.83
2019-01-11T00:49:32.956Z,5.80
2019-01-11T00:52:02.331Z,6.40
2019-01-11T00:54:32.168Z,6.97
2019-01-11T00:57:01.500Z,6.87
2019-01-11T00:59:30.882Z,5.70
2019-01-11T01:02:00.408Z,5.27
2019-01-11T01:04:29.798Z,4.30
2019-01-11T01:06:59.295Z,5.80
2019-01-11T01:09:28.737Z,4.20
2019-01-11T01:11:58.176Z,3.47
2019-01-11T01:14:27.611Z,4.33
2019-01-11T01:16:57.044Z,3.70
2019-01-11T01:19:26.457Z,3.67
2019-01-11T01:21:55.852Z,5.83
2019-01-11T01:24:25.289Z,4.67
2019-01-11T01:26:54.647Z,4.83
2019-01-11T01:29:24.128Z,3.33
2019-01-11T01:31:53.453Z,3.47
2019-01-11T01:34:22.807Z,5.37
2019-01-11T01:36:52.255Z,4.37
2019-01-11T01:39:21.673Z,4.57
2019-01-11T01:41:51.040Z,3.80
2019-01-11T01:44:20.499Z,4.93
2019-01-11T01:46:49.887Z,4.83
2019-01-11T01:49:19.363Z,4.73
2019-01-11T01:51:48.785Z,3.50
2019-01-11T01:54:18.160Z,4.03
2019-01-11T01:56:47.616Z,4.60
2019-01-11T01:59:17.034Z,6.73
2019-01-11T02:01:46.377Z,4.23
2019-01-11T02:04:15.748Z,4.10
2019-01-11T02:06:45.192Z,4.03
2019-01-11T02:09:14.531Z,3.17
2019-01-11T02:11:43.849Z,3.40
2019-01-11T02:14:13.238Z,2.83
2019-01-11T02:16:42.683Z,3.23
2019-01-11T02:19:12.109Z,2.93
2019-01-11T02:21:41.547Z,2.60
2019-01-11T02:24:10.956Z,2.50
2019-01-11T02:26:40.309Z,3.67
2019-01-11T02:29:09.771Z,3.50
2019-01-11T02:31:39.186Z,2.80
2019-01-11T02:34:08.531Z,3.60
2019-01-11T02:36:38.005Z,3.37
2019-01-11T02:39:08.320Z,2.67
2019-01-11T02:41:37.653Z,3.00
2019-01-11T02:44:07.143Z,3.30
2019-01-11T02:46:36.557Z,5.73
2019-01-11T02:49:05.963Z,2.20
2019-01-11T02:51:36.591Z,3.77
2019-01-11T02:54:06.103Z,3.03
2019-01-11T02:56:35.530Z,2.60
2019-01-11T02:59:05.076Z,2.97
2019-01-11T03:01:34.529Z,2.67
2019-01-11T03:04:03.954Z,2.90
2019-01-11T03:06:33.456Z,2.63
2019-01-11T03:09:02.899Z,3.37
2019-01-11T03:11:32.319Z,2.87
2019-01-11T03:14:01.795Z,4.17
2019-01-11T03:16:31.191Z,2.37
2019-01-11T03:19:00.527Z,3.40
2019-01-11T03:21:29.925Z,2.50
2019-01-11T03:23:59.283Z,3.70
2019-01-11T03:26:28.714Z,4.33
2019-01-11T03:28:58.171Z,3.87
2019-01-11T03:31:36.411Z,2.83
2019-01-11T03:34:05.900Z,3.87
2019-01-11T03:36:35.210Z,2.73
2019-01-11T03:39:06.846Z,2.57
2019-01-11T03:41:40.469Z,3.73
2019-01-11T03:44:09.829Z,3.37
2019-01-11T03:46:39.272Z,2.77
2019-01-11T03:49:08.721Z,3.70
2019-01-11T03:51:38.065Z,3.53
2019-01-11T03:54:07.551Z,2.37
2019-01-11T03:56:36.995Z,2.33
2019-01-11T03:59:06.361Z,3.03
2019-01-11T04:01:35.801Z,2.60
2019-01-11T04:04:05.194Z,3.00
2019-01-11T04:06:34.526Z,4.87
2019-01-11T04:09:05.527Z,2.87
2019-01-11T04:11:34.946Z,2.83
2019-01-11T04:14:04.689Z,2.77
2019-01-11T04:16:34.124Z,2.50
2019-01-11T04:19:07.318Z,2.60
2019-01-11T04:21:36.669Z,4.03
2019-01-11T04:24:06.245Z,4.43
2019-01-11T04:26:35.707Z,3.57
2019-01-11T04:29:05.152Z,1.83
2019-01-11T04:31:34.534Z,2.30
2019-01-11T04:34:03.929Z,3.47
2019-01-11T04:36:33.265Z,3.67
2019-01-11T04:39:02.601Z,2.50
2019-01-11T04:41:32.025Z,1.90
2019-01-11T04:44:01.344Z,1.87
2019-01-11T04:46:30.772Z,2.13
2019-01-11T04:49:00.290Z,2.50
2019-01-11T04:51:30.029Z,4.17
2019-01-11T04:54:18.593Z,3.57
2019-01-11T04:56:47.983Z,4.80
2019-01-11T04:59:17.384Z,4.13
2019-01-11T05:01:46.845Z,3.43
2019-01-11T05:04:16.204Z,6.43
2019-01-11T05:06:45.634Z,4.97
2019-01-11T05:09:15.024Z,3.20
2019-01-11T05:11:44.374Z,2.57
2019-01-11T05:14:13.745Z,2.70
2019-01-11T05:16:43.207Z,3.47
2019-01-11T05:19:12.612Z,2.73
2019-01-11T05:21:42.064Z,2.40
2019-01-11T05:24:11.565Z,4.10
2019-01-11T05:26:41.003Z,3.60
2019-01-11T05:29:10.489Z,4.03
2019-01-11T05:31:39.967Z,6.63
2019-01-11T05:34:09.373Z,4.30
2019-01-11T05:36:38.738Z,3.13
2019-01-11T05:39:09.300Z,4.60
2019-01-11T05:41:38.701Z,2.43
2019-01-11T05:44:08.059Z,2.23
2019-01-11T05:46:37.537Z,1.93
2019-01-11T05:49:06.992Z,3.03
2019-01-11T05:51:36.432Z,4.40
2019-01-11T05:54:06.960Z,3.80
2019-01-11T05:56:36.356Z,3.30
2019-01-11T05:59:07.144Z,3.80
2019-01-11T06:01:36.570Z,4.90
2019-01-11T06:04:25.223Z,6.90
2019-01-11T06:07:12.101Z,7.20
2019-01-11T06:09:41.512Z,6.20
2019-01-11T06:12:10.915Z,7.47
2019-01-11T06:14:40.430Z,10.40
2019-01-11T06:17:09.822Z,17.43
2019-01-11T06:19:39.240Z,16.00
2019-01-11T06:22:08.659Z,13.03
2019-01-11T06:24:38.095Z,11.27
2019-01-11T06:27:07.620Z,11.27
2019-01-11T06:29:37.017Z,10.57
2019-01-11T06:32:06.480Z,16.90
2019-01-11T06:34:35.790Z,13.47
2019-01-11T06:37:05.492Z,10.57
2019-01-11T06:39:34.863Z,13.33
2019-01-11T06:42:22.483Z,8.60
2019-01-11T06:44:51.885Z,8.60
2019-01-11T06:47:21.263Z,7.20
2019-01-11T06:49:50.788Z,8.00
2019-01-11T06:52:20.212Z,4.60
2019-01-11T06:54:49.674Z,5.17
2019-01-11T06:57:19.075Z,5.00
2019-01-11T06:59:48.498Z,6.90
2019-01-11T07:02:17.945Z,7.00
2019-01-11T07:04:47.314Z,5.80
2019-01-11T07:07:16.647Z,7.30
2019-01-11T07:09:45.993Z,7.57
2019-01-11T07:12:15.958Z,5.23
2019-01-11T07:14:45.307Z,8.47
2019-01-11T07:17:14.755Z,6.50
2019-01-11T07:19:44.210Z,7.93
2019-01-11T07:22:13.577Z,7.30
2019-01-11T07:24:42.934Z,9.07
2019-01-11T07:27:12.418Z,11.07
2019-01-11T07:29:41.831Z,9.03
2019-01-11T07:32:11.282Z,6.83
2019-01-11T07:34:40.731Z,8.87
2019-01-11T07:37:10.072Z,9.83
2019-01-11T07:39:39.493Z,12.67
2019-01-11T07:42:08.868Z,8.80
2019-01-11T07:44:38.196Z,10.00
2019-01-11T07:47:07.642Z,15.03
2019-01-11T07:49:37.055Z,11.93
2019-01-11T07:52:06.512Z,26.70
2019-01-11T07:54:35.967Z,11.80
2019-01-11T07:57:05.513Z,8.27
2019-01-11T07:59:34.844Z,10.33
2019-01-11T08:02:04.660Z,15.00
2019-01-11T08:04:34.099Z,11.67
2019-01-11T08:07:03.524Z,11.30
2019-01-11T08:09:32.964Z,8.57
2019-01-11T08:12:02.403Z,63.97
2019-01-11T08:14:31.847Z,269.10
2019-01-11T08:17:01.282Z,306.93
2019-01-11T08:19:30.688Z,113.43
2019-01-11T08:22:00.089Z,46.33
2019-01-11T08:24:29.457Z,22.47
2019-01-11T08:26:58.895Z,10.63
2019-01-11T08:29:28.336Z,14.83
2019-01-11T08:31:57.773Z,16.43
2019-01-11T08:34:27.281Z,63.00
2019-01-11T08:36:56.638Z,70.00
2019-01-11T08:39:32.268Z,28.50
2019-01-11T08:41:57.218Z,34.37
2019-01-11T08:44:26.609Z,17.87
2019-01-11T08:46:56.040Z,18.40
2019-01-11T08:49:25.492Z,18.50
2019-01-11T08:51:54.947Z,15.67
2019-01-11T08:54:24.393Z,18.93
2019-01-11T08:56:53.987Z,12.83
2019-01-11T08:59:23.401Z,14.83
2019-01-11T09:01:52.832Z,14.87
2019-01-11T09:04:22.244Z,11.53
2019-01-11T09:06:51.594Z,11.23
2019-01-11T09:09:20.980Z,13.53
2019-01-11T09:11:50.439Z,11.73
2019-01-11T09:14:46.895Z,6.00
2019-01-11T09:17:17.321Z,7.63
2019-01-11T09:19:46.715Z,93.10
2019-01-11T09:22:16.188Z,44.77
2019-01-11T09:24:45.685Z,27.07
2019-01-11T09:27:15.121Z,20.53
2019-01-11T09:29:44.496Z,16.67
2019-01-11T09:32:14.008Z,128.07
2019-01-11T09:34:43.322Z,39.63
2019-01-11T09:37:12.642Z,42.13
2019-01-11T09:39:42.043Z,24.10
2019-01-11T09:42:11.434Z,19.83
2019-01-11T09:44:40.780Z,19.67
2019-01-11T09:47:10.273Z,11.63
2019-01-11T09:49:39.610Z,7.03
2019-01-11T09:52:08.945Z,9.27
2019-01-11T09:54:38.333Z,7.53
2019-01-11T09:57:07.759Z,8.97
2019-01-11T09:59:37.173Z,8.47
2019-01-11T10:02:23.305Z,6.77
2019-01-11T10:04:52.683Z,8.40
2019-01-11T10:07:25.805Z,9.33
2019-01-11T10:09:55.647Z,9.50
2019-01-11T10:12:24.979Z,12.30
2019-01-11T10:14:54.363Z,22.87
2019-01-11T10:17:23.790Z,12.60
2019-01-11T10:19:53.121Z,17.13
2019-01-11T10:22:22.528Z,36.37
2019-01-11T10:24:51.893Z,157.37
2019-01-11T10:27:21.256Z,290.27
2019-01-11T10:29:50.725Z,95.10
2019-01-11T10:32:20.065Z,59.77
2019-01-11T10:34:49.429Z,7.40
2019-01-11T10:37:18.803Z,8.13
2019-01-11T10:39:48.187Z,7.50
2019-01-11T10:42:17.627Z,6.70
2019-01-11T10:44:47.075Z,5.97
2019-01-11T10:47:16.506Z,6.10
2019-01-11T10:49:45.951Z,4.67
2019-01-11T10:52:15.558Z,7.23
2019-01-11T10:54:45.016Z,10.97
2019-01-11T10:57:14.475Z,5.57
2019-01-11T10:59:43.948Z,7.67
2019-01-11T11:02:14.479Z,6.83
2019-01-11T11:04:43.912Z,5.33
2019-01-11T11:07:13.381Z,15.77
2019-01-11T11:09:42.717Z,10.13
2019-01-11T11:12:12.087Z,4.27
2019-01-11T11:14:41.520Z,12.80
2019-01-11T11:17:10.871Z,4.00
2019-01-11T11:19:40.217Z,3.60
2019-01-11T11:22:09.716Z,3.90
2019-01-11T11:24:39.058Z,4.77
2019-01-11T11:27:08.419Z,3.63
2019-01-11T11:29:37.919Z,5.17
2019-01-11T11:32:07.370Z,3.60
2019-01-11T11:34:38.379Z,4.77
2019-01-11T11:37:07.892Z,4.37
2019-01-11T11:39:37.317Z,5.20
2019-01-11T11:42:06.768Z,4.23
2019-01-11T11:44:36.262Z,17.20
2019-01-11T11:47:05.633Z,8.83
2019-01-11T11:49:35.057Z,7.93
2019-01-11T11:52:04.657Z,8.03
2019-01-11T11:54:34.049Z,11.20
2019-01-11T11:57:03.492Z,11.40
2019-01-11T11:59:32.956Z,9.03
2019-01-11T12:02:02.336Z,17.37
2019-01-11T12:04:31.782Z,9.80
2019-01-11T12:07:01.196Z,6.47
2019-01-11T12:09:30.637Z,6.10
2019-01-11T12:12:00.050Z,4.37
2019-01-11T12:14:29.451Z,5.03
2019-01-11T12:16:58.879Z,3.77
2019-01-11T12:19:28.292Z,3.20
2019-01-11T12:22:01.658Z,6.43
2019-01-11T12:24:28.809Z,7.30
2019-01-11T12:26:58.247Z,6.17
2019-01-11T12:29:27.705Z,7.67
2019-01-11T12:31:57.062Z,5.80
2019-01-11T12:34:26.390Z,5.37
2019-01-11T12:36:55.758Z,4.20
2019-01-11T12:39:25.112Z,4.43
2019-01-11T12:41:54.422Z,3.50
2019-01-11T12:44:23.806Z,23.07
2019-01-11T12:46:53.142Z,4.40
2019-01-11T12:49:22.473Z,4.80
2019-01-11T12:51:54.065Z,4.17
2019-01-11T12:54:22.959Z,6.07
2019-01-11T12:56:52.431Z,6.63
2019-01-11T12:59:21.927Z,8.57
2019-01-11T13:01:51.376Z,5.23
2019-01-11T13:04:20.803Z,5.73
2019-01-11T13:06:50.224Z,10.53
2019-01-11T13:09:19.624Z,4.63
2019-01-11T13:11:49.027Z,7.37
2019-01-11T13:14:18.518Z,5.47
2019-01-11T13:16:47.884Z,8.80
2019-01-11T13:19:17.229Z,7.20
2019-01-11T13:21:46.620Z,5.73
2019-01-11T13:24:16.014Z,5.73
2019-01-11T13:26:45.455Z,4.83
2019-01-11T13:29:14.886Z,4.77
2019-01-11T13:31:44.230Z,9.53
2019-01-11T13:34:13.564Z,6.20
2019-01-11T13:36:43.392Z,22.50
2019-01-11T13:39:13.536Z,10.60
2019-01-11T13:41:42.987Z,60.30
2019-01-11T13:44:12.518Z,11.43
2019-01-11T13:46:41.916Z,11.73
2019-01-11T13:49:11.218Z,7.33
2019-01-11T13:51:40.636Z,7.07
2019-01-11T13:54:10.088Z,13.07
2019-01-11T13:56:39.515Z,17.93
2019-01-11T13:59:08.915Z,26.23
2019-01-11T14:01:38.302Z,14.00
2019-01-11T14:04:07.702Z,11.20
2019-01-11T14:06:37.124Z,7.77
2019-01-11T14:09:08.926Z,4.97
2019-01-11T14:11:38.281Z,6.00
2019-01-11T14:14:07.703Z,5.13
2019-01-11T14:16:37.115Z,4.90
2019-01-11T14:19:06.458Z,7.43
2019-01-11T14:21:35.833Z,4.70
2019-01-11T14:24:05.311Z,5.33
2019-01-11T14:26:34.698Z,4.77
2019-01-11T14:29:04.482Z,11.37
2019-01-11T14:31:33.857Z,5.03
2019-01-11T14:34:03.256Z,7.07
2019-01-11T14:36:32.808Z,5.83
2019-01-11T14:39:02.245Z,8.07
2019-01-11T14:41:31.887Z,10.80
2019-01-11T14:44:01.882Z,8.73
2019-01-11T14:46:31.202Z,15.90
2019-01-11T14:49:00.543Z,16.20
2019-01-11T14:51:29.946Z,12.57
2019-01-11T14:53:59.361Z,11.20
2019-01-11T14:56:28.733Z,10.73
2019-01-11T14:58:58.215Z,14.80
2019-01-11T15:01:27.591Z,20.93
2019-01-11T15:03:57.006Z,50.07
2019-01-11T15:06:26.465Z,36.60
2019-01-11T15:08:55.800Z,28.90
2019-01-11T15:11:25.237Z,30.40
2019-01-11T15:13:54.665Z,28.90
2019-01-11T15:16:24.020Z,21.67
2019-01-11T15:18:53.377Z,18.50
2019-01-11T15:21:22.775Z,39.40
2019-01-11T15:23:52.205Z,21.30
2019-01-11T15:26:21.625Z,21.07
2019-01-11T15:28:51.097Z,17.53
2019-01-11T15:31:20.451Z,12.70
2019-01-11T15:33:49.881Z,12.23
2019-01-11T15:36:19.425Z,17.47
2019-01-11T15:38:48.872Z,11.67
2019-01-11T15:41:18.309Z,20.03
2019-01-11T15:43:47.721Z,21.97
2019-01-11T15:46:17.145Z,18.73
2019-01-11T15:48:50.843Z,10.60
2019-01-11T15:51:23.115Z,10.73
2019-01-11T15:53:52.548Z,10.10
2019-01-11T15:56:26.327Z,21.33
2019-01-11T15:58:55.766Z,11.70
2019-01-11T16:01:25.218Z,17.80
2019-01-11T16:03:55.125Z,16.93
2019-01-11T16:06:27.716Z,14.43
2019-01-11T16:09:15.477Z,21.60
2019-01-11T16:11:51.041Z,15.17
2019-01-11T16:14:53.786Z,18.57
2019-01-11T16:17:23.175Z,14.07
2019-01-11T16:19:52.614Z,14.40
2019-01-11T16:22:22.118Z,15.30
2019-01-11T16:24:51.472Z,13.60
2019-01-11T16:27:20.904Z,17.87
2019-01-11T16:29:50.311Z,30.00
2019-01-11T16:32:19.780Z,23.97
2019-01-11T16:34:49.212Z,26.47
2019-01-11T16:37:18.719Z,25.73
2019-01-11T16:39:48.161Z,22.03
2019-01-11T16:42:17.582Z,25.33
2019-01-11T16:44:46.997Z,28.73
2019-01-11T16:47:16.440Z,31.80
2019-01-11T16:49:45.765Z,30.73
2019-01-11T16:52:15.520Z,34.77
2019-01-11T16:54:45.230Z,26.70
2019-01-11T16:57:14.553Z,29.73
2019-01-11T16:59:43.939Z,32.47
2019-01-11T17:02:13.389Z,31.83
2019-01-11T17:04:42.825Z,28.47
2019-01-11T17:07:12.342Z,27.43
2019-01-11T17:09:41.693Z,27.83
2019-01-11T17:12:11.144Z,31.20
2019-01-11T17:14:40.585Z,30.10
2019-01-11T17:17:10.011Z,33.77
2019-01-11T17:19:39.477Z,37.17
2019-01-11T17:22:08.998Z,37.20
2019-01-11T17:24:38.414Z,35.80
2019-01-11T17:27:07.780Z,35.50
2019-01-11T17:29:37.279Z,33.00
2019-01-11T17:32:06.725Z,33.67
2019-01-11T17:34:36.110Z,34.47
2019-01-11T17:37:05.601Z,36.57
2019-01-11T17:39:34.956Z,48.23
2019-01-11T17:42:04.717Z,51.50
2019-01-11T17:44:34.151Z,45.40
2019-01-11T17:47:03.557Z,51.53
2019-01-11T17:49:32.941Z,57.40
2019-01-11T17:52:02.398Z,59.03
2019-01-11T17:54:31.822Z,67.97
2019-01-11T17:57:01.190Z,77.00
2019-01-11T17:59:30.650Z,70.87
2019-01-11T18:02:00.010Z,75.43
2019-01-11T18:04:29.464Z,74.17
2019-01-11T18:06:58.904Z,66.97
2019-01-11T18:09:28.317Z,66.70
2019-01-11T18:11:57.771Z,65.77
2019-01-11T18:14:28.224Z,68.70
2019-01-11T18:16:57.976Z,62.27
2019-01-11T18:19:27.364Z,62.13
2019-01-11T18:21:56.832Z,58.33
2019-01-11T18:24:26.219Z,56.73
2019-01-11T18:26:55.655Z,57.97
2019-01-11T18:29:25.195Z,63.63
2019-01-11T18:31:54.582Z,66.77
2019-01-11T18:34:23.939Z,71.07
2019-01-11T18:36:53.400Z,74.87
2019-01-11T18:39:24.479Z,73.00
2019-01-11T18:41:54.061Z,65.67
2019-01-11T18:44:23.573Z,57.40
2019-01-11T18:46:52.991Z,57.70
2019-01-11T18:49:22.387Z,56.03
2019-01-11T18:51:51.943Z,55.30
2019-01-11T18:54:21.373Z,40.73
2019-01-11T18:56:50.758Z,30.83
2019-01-11T18:59:20.202Z,25.70
2019-01-11T19:01:49.624Z,17.13
2019-01-11T19:04:19.018Z,17.77
2019-01-11T19:06:48.491Z,19.10
2019-01-11T19:09:17.864Z,19.90
2019-01-11T19:11:47.227Z,17.23
2019-01-11T19:14:16.705Z,17.27
2019-01-11T19:16:46.112Z,18.87
2019-01-11T19:19:15.523Z,15.43
2019-01-11T19:21:45.006Z,15.17
2019-01-11T19:24:14.376Z,14.43
2019-01-11T19:26:43.855Z,15.53
2019-01-11T19:29:13.339Z,15.80
2019-01-11T19:31:42.780Z,15.50
2019-01-11T19:34:12.207Z,16.67
2019-01-11T19:36:41.669Z,21.60
2019-01-11T19:39:11.051Z,18.47
2019-01-11T19:41:40.481Z,22.57
2019-01-11T19:44:09.935Z,24.60
2019-01-11T19:46:39.394Z,34.10
2019-01-11T19:49:08.822Z,42.90
2019-01-11T19:51:38.406Z,38.47
2019-01-11T19:54:07.861Z,45.00
2019-01-11T19:56:37.204Z,40.93
2019-01-11T19:59:06.598Z,41.90
2019-01-11T20:01:36.012Z,39.10
2019-01-11T20:04:05.654Z,36.90
2019-01-11T20:06:35.132Z,33.80
2019-01-11T20:09:07.480Z,27.93
2019-01-11T20:11:36.937Z,26.20
2019-01-11T20:14:07.159Z,22.03
2019-01-11T20:16:36.594Z,21.77
2019-01-11T20:19:05.933Z,21.07
2019-01-11T20:21:35.697Z,20.23
2019-01-11T20:24:05.497Z,23.03
2019-01-11T20:26:35.057Z,21.50
2019-01-11T20:29:04.895Z,20.70
2019-01-11T20:31:34.550Z,23.97
2019-01-11T20:34:03.898Z,22.97
2019-01-11T20:36:37.985Z,28.47
2019-01-11T20:39:08.252Z,27.43
2019-01-11T20:41:37.695Z,25.43
2019-01-11T20:44:07.179Z,22.53
2019-01-11T20:46:36.577Z,24.17
2019-01-11T20:49:06.049Z,20.13
2019-01-11T20:51:35.604Z,19.33
2019-01-11T20:54:06.624Z,17.50
2019-01-11T20:56:37.162Z,17.67
2019-01-11T20:59:06.587Z,13.37
2019-01-11T21:01:36.034Z,16.57
2019-01-11T21:04:05.767Z,12.50
2019-01-11T21:06:35.238Z,12.87
2019-01-11T21:09:06.473Z,10.63
2019-01-11T21:11:35.937Z,11.33
2019-01-11T21:14:05.296Z,10.13
2019-01-11T21:16:34.670Z,11.27
2019-01-11T21:19:04.083Z,14.40
2019-01-11T21:21:33.554Z,34.33
2019-01-11T21:24:02.916Z,29.27
2019-01-11T21:26:32.349Z,16.07
2019-01-11T21:29:01.865Z,14.77
2019-01-11T21:31:31.182Z,14.10
2019-01-11T21:34:00.564Z,15.97
2019-01-11T21:36:30.102Z,15.90
2019-01-11T21:38:59.465Z,17.90
2019-01-11T21:41:28.789Z,19.23
2019-01-11T21:43:58.167Z,26.10
2019-01-11T21:46:27.521Z,21.83
2019-01-11T21:48:57.685Z,27.37
2019-01-11T21:51:27.171Z,17.93
2019-01-11T21:53:56.609Z,10.53
2019-01-11T21:56:25.964Z,13.13
2019-01-11T21:58:55.368Z,31.93
2019-01-11T22:01:24.704Z,24.10
2019-01-11T22:03:54.032Z,16.70
2019-01-11T22:06:23.665Z,14.17
2019-01-11T22:08:53.008Z,13.73
2019-01-11T22:11:22.416Z,9.83
2019-01-11T22:13:51.816Z,5.47
2019-01-11T22:16:21.134Z,6.57
2019-01-11T22:18:50.544Z,7.77
2019-01-11T22:21:19.930Z,13.47
2019-01-11T22:23:49.345Z,13.50
2019-01-11T22:26:18.964Z,13.03
2019-01-11T22:28:49.244Z,17.67
2019-01-11T22:31:18.592Z,12.70
2019-01-11T22:33:47.932Z,14.37
2019-01-11T22:36:17.328Z,9.33
2019-01-11T22:38:46.652Z,8.63
2019-01-11T22:41:16.013Z,10.70
2019-01-11T22:43:45.466Z,11.80
2019-01-11T22:46:14.907Z,11.83
2019-01-11T22:48:44.331Z,10.57
2019-01-11T22:51:13.713Z,8.67
2019-01-11T22:53:43.157Z,8.57
2019-01-11T22:56:12.510Z,7.10
2019-01-11T22:58:41.902Z,5.93
2019-01-11T23:01:31.334Z,6.60
2019-01-11T23:04:00.719Z,7.93
2019-01-11T23:06:56.788Z,4.27
2019-01-11T23:09:30.152Z,5.53
2019-01-11T23:12:16.903Z,4.97
2019-01-11T23:14:46.407Z,8.33
2019-01-11T23:17:37.582Z,7.87
2019-01-11T23:20:09.580Z,5.13
2019-01-11T23:22:38.950Z,5.07
2019-01-11T23:25:08.632Z,5.37
2019-01-11T23:27:38.293Z,4.50
2019-01-11T23:30:14.168Z,4.43
2019-01-11T23:32:43.740Z,3.83
2019-01-11T23:35:13.468Z,3.33
2019-01-11T23:37:42.927Z,4.63
2019-01-11T23:40:16.455Z,5.17
2019-01-11T23:42:45.807Z,8.03
2019-01-11T23:45:15.465Z,7.53
2019-01-11T23:47:45.024Z,8.57
2019-01-11T23:50:16.731Z,9.07
2019-01-11T23:52:46.256Z,7.53
2019-01-11T23:55:15.734Z,9.80
2019-01-11T23:57:45.100Z,14.47
